Bagdad, Florida
Current Conditions -  °F | °C
As of 2:56 AM on Friday 31 Oct 2014 (Local Time) from KNDZ Reporting Station
Clear Clear  
Wind Chill:   Ceiling: Unl
Heat Index:   Visibility: 10mi
Dew Point:   Wind: 5mph
Humidity: 86%   Direction: 310°NW
Pressure: 29.99"   Gusts: NA
Location:  30.6°N, 87.04°W
Report Text: KNDZ 310756Z AUTO 31004KT 10SM CLR 06/04 A2999 RMK AO2 SLP143 T00610039 $
Loading
Personal Weather Stations






























Interactive Weather Map
Tropical Storm Tracking
New forecast layout! Learn more

10-Day Weather Forecast

Advertisements
Track Severe Weather on mobile